createdAt,value
2019-05-01T00:02:12.664Z,5.80
2019-05-01T00:05:00.148Z,5.80
2019-05-01T00:07:34.940Z,5.80
2019-05-01T00:10:07.345Z,5.80
2019-05-01T00:12:39.957Z,5.80
2019-05-01T00:15:11.901Z,5.80
2019-05-01T00:17:45.139Z,5.80
2019-05-01T00:20:15.871Z,5.80
2019-05-01T00:22:46.524Z,5.80
2019-05-01T00:25:18.800Z,5.80
2019-05-01T00:27:53.201Z,5.80
2019-05-01T00:30:30.099Z,5.70
2019-05-01T00:33:03.660Z,5.70
2019-05-01T00:35:35.737Z,5.70
2019-05-01T00:38:07.920Z,5.70
2019-05-01T00:40:39.576Z,5.70
2019-05-01T00:43:10.753Z,5.60
2019-05-01T00:45:42.032Z,5.60
2019-05-01T00:48:14.546Z,5.60
2019-05-01T00:50:47.201Z,5.50
2019-05-01T00:53:19.423Z,5.50
2019-05-01T00:56:02.862Z,5.50
2019-05-01T00:58:52.093Z,5.50
2019-05-01T01:01:52.589Z,5.50
2019-05-01T01:04:23.460Z,5.50
2019-05-01T01:06:53.189Z,5.50
2019-05-01T01:09:24.812Z,5.40
2019-05-01T01:11:55.989Z,5.40
2019-05-01T01:14:25.808Z,5.40
2019-05-01T01:16:56.945Z,5.40
2019-05-01T01:19:27.707Z,5.40
2019-05-01T01:22:00.160Z,5.40
2019-05-01T01:24:33.487Z,5.40
2019-05-01T01:27:08.781Z,5.30
2019-05-01T01:29:42.126Z,5.30
2019-05-01T01:32:13.420Z,5.30
2019-05-01T01:34:44.066Z,5.30
2019-05-01T01:37:16.261Z,5.20
2019-05-01T01:39:46.828Z,5.20
2019-05-01T01:42:20.513Z,5.20
2019-05-01T01:45:11.231Z,5.20
2019-05-01T01:48:01.554Z,5.20
2019-05-01T01:50:37.841Z,5.20
2019-05-01T01:53:10.264Z,5.20
2019-05-01T01:55:44.569Z,5.00
2019-05-01T01:58:15.121Z,5.10
2019-05-01T02:01:09.230Z,5.10
2019-05-01T02:03:38.193Z,5.00
2019-05-01T02:06:13.323Z,5.00
2019-05-01T02:08:55.966Z,5.00
2019-05-01T02:11:21.051Z,4.90
2019-05-01T02:13:53.682Z,4.90
2019-05-01T02:16:25.079Z,4.80
2019-05-01T02:18:58.265Z,4.90
2019-05-01T02:21:29.113Z,4.80
2019-05-01T02:24:00.796Z,4.80
2019-05-01T02:26:37.157Z,4.70
2019-05-01T02:29:18.278Z,4.70
2019-05-01T02:31:50.306Z,4.70
2019-05-01T02:34:23.289Z,4.70
2019-05-01T02:36:56.527Z,4.60
2019-05-01T02:39:28.145Z,4.60
2019-05-01T02:42:00.668Z,4.60
2019-05-01T02:44:34.414Z,4.60
2019-05-01T02:47:08.263Z,4.70
2019-05-01T02:49:53.890Z,4.60
2019-05-01T02:52:26.711Z,4.60
2019-05-01T02:54:59.185Z,4.60
2019-05-01T02:57:38.749Z,4.60
2019-05-01T03:00:12.147Z,4.60
2019-05-01T03:02:45.300Z,4.70
2019-05-01T03:05:17.759Z,4.60
2019-05-01T03:07:51.008Z,4.60
2019-05-01T03:10:24.282Z,4.60
2019-05-01T03:12:57.209Z,4.60
2019-05-01T03:15:31.981Z,4.50
2019-05-01T03:18:29.233Z,4.50
2019-05-01T03:21:06.583Z,4.70
2019-05-01T03:24:01.997Z,4.70
2019-05-01T03:26:35.285Z,4.70
2019-05-01T03:29:09.523Z,4.80
2019-05-01T03:32:13.328Z,4.80
2019-05-01T03:34:19.713Z,4.90
2019-05-01T03:36:50.838Z,4.90
2019-05-01T03:39:25.334Z,4.90
2019-05-01T03:41:57.359Z,4.90
2019-05-01T03:44:31.982Z,5.00
2019-05-01T03:47:02.916Z,5.00
2019-05-01T03:49:33.621Z,5.10
2019-05-01T03:52:04.787Z,5.10
2019-05-01T03:54:36.463Z,5.40
2019-05-01T03:57:12.625Z,5.50
2019-05-01T03:59:44.814Z,5.40
2019-05-01T04:02:35.919Z,5.50
2019-05-01T04:05:06.667Z,5.50
2019-05-01T04:07:39.118Z,5.50
2019-05-01T04:10:11.480Z,5.70
2019-05-01T04:12:43.054Z,5.70
2019-05-01T04:15:13.696Z,5.80
2019-05-01T04:17:49.982Z,6.00
2019-05-01T04:20:21.772Z,6.10
2019-05-01T04:22:55.102Z,6.20
2019-05-01T04:25:26.648Z,6.30
2019-05-01T04:28:02.587Z,6.40
2019-05-01T04:30:52.991Z,6.70
2019-05-01T04:33:24.699Z,6.80
2019-05-01T04:36:02.196Z,7.00
2019-05-01T04:38:33.835Z,7.20
2019-05-01T04:41:06.542Z,7.30
2019-05-01T04:43:41.650Z,7.60
2019-05-01T04:46:14.991Z,7.90
2019-05-01T04:48:45.107Z,8.10
2019-05-01T04:51:33.822Z,8.00
2019-05-01T04:54:07.073Z,8.20
2019-05-01T04:56:41.921Z,8.60
2019-05-01T04:59:10.927Z,8.70
2019-05-01T05:02:01.179Z,8.70
2019-05-01T05:04:30.964Z,8.80
2019-05-01T05:07:04.461Z,8.90
2019-05-01T05:09:46.807Z,9.10
2019-05-01T05:12:35.237Z,9.60
2019-05-01T05:15:22.894Z,9.80
2019-05-01T05:17:54.777Z,9.70
2019-05-01T05:20:27.122Z,10.10
2019-05-01T05:22:58.801Z,10.00
2019-05-01T05:25:34.057Z,9.70
2019-05-01T05:28:05.524Z,9.40
2019-05-01T05:30:42.022Z,9.30
2019-05-01T05:33:18.492Z,9.10
2019-05-01T05:35:49.821Z,8.80
2019-05-01T05:38:35.481Z,8.60
2019-05-01T05:41:11.364Z,8.50
2019-05-01T05:43:45.766Z,8.50
2019-05-01T05:46:20.178Z,8.50
2019-05-01T05:48:55.022Z,8.40
2019-05-01T05:51:46.046Z,8.30
2019-05-01T05:54:41.079Z,8.30
2019-05-01T05:57:17.653Z,8.10
2019-05-01T05:59:55.456Z,8.30
2019-05-01T06:02:37.849Z,8.40
2019-05-01T06:05:33.127Z,8.40
2019-05-01T06:08:27.094Z,8.20
2019-05-01T06:11:17.195Z,8.20
2019-05-01T06:14:19.893Z,8.30
2019-05-01T06:17:06.485Z,8.30
2019-05-01T06:19:49.766Z,8.30
2019-05-01T06:22:29.726Z,8.30
2019-05-01T06:25:25.388Z,8.30
2019-05-01T06:27:58.963Z,8.20
2019-05-01T06:30:31.462Z,8.30
2019-05-01T06:33:09.575Z,8.20
2019-05-01T06:35:40.980Z,8.20
2019-05-01T06:38:24.246Z,8.20
2019-05-01T06:40:58.218Z,8.20
2019-05-01T06:43:48.366Z,8.10
2019-05-01T06:46:38.901Z,8.20
2019-05-01T06:49:29.448Z,8.30
2019-05-01T06:52:03.161Z,8.20
2019-05-01T06:54:41.712Z,8.30
2019-05-01T06:57:12.314Z,8.40
2019-05-01T06:59:45.274Z,8.50
2019-05-01T07:02:16.372Z,8.30
2019-05-01T07:04:51.060Z,8.30
2019-05-01T07:07:25.518Z,8.40
2019-05-01T07:09:58.168Z,8.40
2019-05-01T07:12:34.389Z,8.50
2019-05-01T07:15:06.837Z,8.60
2019-05-01T07:17:39.283Z,8.60
2019-05-01T07:20:37.894Z,8.60
2019-05-01T07:23:12.694Z,8.60
2019-05-01T07:25:44.149Z,8.90
2019-05-01T07:28:14.837Z,8.80
2019-05-01T07:30:57.589Z,9.30
2019-05-01T07:33:30.061Z,9.10
2019-05-01T07:36:02.519Z,9.20
2019-05-01T07:38:38.438Z,9.40
2019-05-01T07:41:12.296Z,8.90
2019-05-01T07:44:17.160Z,9.10
2019-05-01T07:47:06.493Z,9.20
2019-05-01T07:50:12.519Z,9.20
2019-05-01T07:52:43.448Z,8.70
2019-05-01T07:55:18.166Z,9.00
2019-05-01T07:57:52.328Z,9.10
2019-05-01T08:00:41.484Z,9.00
2019-05-01T08:03:13.197Z,9.00
2019-05-01T08:05:46.637Z,8.80
2019-05-01T08:08:20.177Z,8.70
2019-05-01T08:10:51.353Z,9.00
2019-05-01T08:13:25.489Z,8.70
2019-05-01T08:15:56.777Z,8.90
2019-05-01T08:18:31.633Z,9.30
2019-05-01T08:21:11.465Z,9.60
2019-05-01T08:23:47.134Z,9.30
2019-05-01T08:26:16.804Z,9.60
2019-05-01T08:29:08.324Z,9.50
2019-05-01T08:31:58.878Z,9.40
2019-05-01T08:34:30.377Z,9.30
2019-05-01T08:37:09.269Z,9.50
2019-05-01T08:39:44.311Z,9.50
2019-05-01T08:42:14.297Z,9.80
2019-05-01T08:45:22.639Z,10.20
2019-05-01T08:48:01.679Z,9.90
2019-05-01T08:50:33.433Z,9.70
2019-05-01T08:53:06.642Z,10.10
2019-05-01T08:55:45.229Z,9.80
2019-05-01T08:58:14.025Z,9.80
2019-05-01T09:00:44.614Z,10.20
2019-05-01T09:03:18.667Z,9.90
2019-05-01T09:05:52.352Z,10.10
2019-05-01T09:08:18.569Z,10.10
2019-05-01T09:10:49.599Z,10.20
2019-05-01T09:13:23.737Z,10.30
2019-05-01T09:15:50.998Z,10.10
2019-05-01T09:18:23.578Z,10.00
2019-05-01T09:20:59.561Z,9.80
2019-05-01T09:23:34.322Z,9.50
2019-05-01T09:26:18.098Z,9.50
2019-05-01T09:28:56.697Z,9.50
2019-05-01T09:31:28.471Z,9.70
2019-05-01T09:33:59.608Z,9.70
2019-05-01T09:36:30.941Z,9.80
2019-05-01T09:39:00.694Z,9.80
2019-05-01T09:41:38.398Z,9.90
2019-05-01T09:44:10.623Z,10.10
2019-05-01T09:46:44.650Z,10.20
2019-05-01T09:49:18.333Z,9.90
2019-05-01T09:52:09.468Z,9.80
2019-05-01T09:54:47.913Z,10.30
2019-05-01T09:57:21.526Z,10.30
2019-05-01T09:59:53.870Z,10.40
2019-05-01T10:02:25.528Z,10.60
2019-05-01T10:05:02.123Z,10.70
2019-05-01T10:07:31.984Z,10.60
2019-05-01T10:10:04.181Z,10.30
2019-05-01T10:12:33.961Z,10.90
2019-05-01T10:15:05.709Z,10.90
2019-05-01T10:17:39.849Z,10.50
2019-05-01T10:20:12.189Z,10.70
2019-05-01T10:22:43.481Z,11.10
2019-05-01T10:25:15.784Z,11.10
2019-05-01T10:27:53.075Z,11.20
2019-05-01T10:30:41.744Z,10.70
2019-05-01T10:33:20.681Z,10.30
2019-05-01T10:36:17.686Z,10.10
2019-05-01T10:38:44.909Z,10.00
2019-05-01T10:41:34.996Z,9.90
2019-05-01T10:44:08.645Z,10.50
2019-05-01T10:46:39.254Z,9.70
2019-05-01T10:49:11.229Z,9.50
2019-05-01T10:51:43.528Z,9.50
2019-05-01T10:54:16.555Z,10.00
2019-05-01T10:56:48.247Z,9.90
2019-05-01T10:59:20.969Z,9.50
2019-05-01T11:02:00.145Z,8.90
2019-05-01T11:04:31.333Z,9.50
2019-05-01T11:07:04.559Z,9.60
2019-05-01T11:09:36.250Z,10.00
2019-05-01T11:12:11.538Z,9.60
2019-05-01T11:14:43.662Z,10.00
2019-05-01T11:17:14.780Z,9.60
2019-05-01T11:19:46.024Z,9.50
2019-05-01T11:22:18.294Z,9.50
2019-05-01T11:24:48.846Z,9.50
2019-05-01T11:27:21.558Z,10.30
2019-05-01T11:29:53.641Z,9.60
2019-05-01T11:32:42.895Z,9.80
2019-05-01T11:35:48.562Z,10.00
2019-05-01T11:38:42.885Z,9.30
2019-05-01T11:41:23.588Z,9.90
2019-05-01T11:43:55.770Z,9.20
2019-05-01T11:46:27.506Z,9.40
2019-05-01T11:48:58.641Z,9.20
2019-05-01T11:51:30.450Z,9.20
2019-05-01T11:54:02.228Z,9.40
2019-05-01T11:56:31.565Z,8.70
2019-05-01T11:59:03.215Z,9.20
2019-05-01T12:01:36.403Z,8.80
2019-05-01T12:04:08.653Z,9.20
2019-05-01T12:06:38.417Z,8.70
2019-05-01T12:09:09.715Z,8.80
2019-05-01T12:11:43.601Z,8.70
2019-05-01T12:14:14.735Z,8.50
2019-05-01T12:17:17.163Z,8.20
2019-05-01T12:19:49.326Z,8.50
2019-05-01T12:22:21.452Z,8.60
2019-05-01T12:24:54.882Z,8.80
2019-05-01T12:27:26.585Z,8.80
2019-05-01T12:29:57.747Z,8.80
2019-05-01T12:32:28.376Z,9.20
2019-05-01T12:34:59.583Z,8.50
2019-05-01T12:37:55.398Z,8.30
2019-05-01T12:40:25.124Z,8.60
2019-05-01T12:42:55.372Z,8.50
2019-05-01T12:45:24.706Z,8.80
2019-05-01T12:47:55.853Z,8.80
2019-05-01T12:50:25.481Z,9.30
2019-05-01T12:53:15.021Z,9.60
2019-05-01T12:56:06.321Z,9.60
2019-05-01T12:58:42.512Z,9.60
2019-05-01T13:01:14.697Z,9.80
2019-05-01T13:03:49.897Z,9.30
2019-05-01T13:06:23.283Z,9.20
2019-05-01T13:08:56.867Z,8.60
2019-05-01T13:11:29.175Z,8.90
2019-05-01T13:14:01.800Z,9.20
2019-05-01T13:16:35.066Z,9.50
2019-05-01T13:19:10.225Z,9.50
2019-05-01T13:21:41.849Z,9.30
2019-05-01T13:24:12.049Z,9.00
2019-05-01T13:27:00.850Z,9.20
2019-05-01T13:29:36.493Z,8.80
2019-05-01T13:32:34.135Z,8.90
2019-05-01T13:35:06.341Z,8.70
2019-05-01T13:37:39.979Z,8.10
2019-05-01T13:40:13.094Z,8.60
2019-05-01T13:42:47.757Z,8.50
2019-05-01T13:45:23.380Z,8.70
2019-05-01T13:47:55.573Z,8.50
2019-05-01T13:50:26.140Z,8.50
2019-05-01T13:53:00.422Z,8.20
2019-05-01T13:55:32.638Z,8.60
2019-05-01T13:58:01.540Z,9.10
2019-05-01T14:00:30.918Z,9.10
2019-05-01T14:03:03.128Z,9.60
2019-05-01T14:05:36.695Z,9.90
2019-05-01T14:08:10.970Z,9.90
2019-05-01T14:10:44.172Z,10.00
2019-05-01T14:13:16.381Z,9.30
2019-05-01T14:15:50.642Z,9.30
2019-05-01T14:18:21.236Z,9.20
2019-05-01T14:21:02.198Z,9.30
2019-05-01T14:23:50.660Z,8.60
2019-05-01T14:26:21.260Z,8.90
2019-05-01T14:28:53.431Z,9.10
2019-05-01T14:31:28.148Z,9.30
2019-05-01T14:33:59.325Z,9.20
2019-05-01T14:36:30.520Z,8.90
2019-05-01T14:39:03.199Z,8.90
2019-05-01T14:41:35.726Z,8.60
2019-05-01T14:44:06.568Z,9.60
2019-05-01T14:46:37.410Z,9.60
2019-05-01T14:49:06.778Z,9.60
2019-05-01T14:51:36.241Z,9.60
2019-05-01T14:54:07.419Z,9.60
2019-05-01T14:56:40.126Z,8.70
2019-05-01T14:59:10.720Z,8.90
2019-05-01T15:01:42.341Z,9.10
2019-05-01T15:04:17.545Z,9.40
2019-05-01T15:06:48.690Z,8.80
2019-05-01T15:09:20.205Z,9.00
2019-05-01T15:11:55.242Z,9.00
2019-05-01T15:14:36.083Z,9.00
2019-05-01T15:17:28.357Z,8.80
2019-05-01T15:20:08.504Z,8.80
2019-05-01T15:22:41.686Z,8.40
2019-05-01T15:25:12.947Z,8.70
2019-05-01T15:27:43.509Z,8.70
2019-05-01T15:30:15.669Z,8.50
2019-05-01T15:32:49.459Z,8.40
2019-05-01T15:35:20.526Z,8.40
2019-05-01T15:37:56.818Z,8.70
2019-05-01T15:40:38.781Z,9.00
2019-05-01T15:43:27.594Z,9.00
2019-05-01T15:45:59.741Z,9.40
2019-05-01T15:48:30.904Z,9.40
2019-05-01T15:51:03.453Z,9.20
2019-05-01T15:53:38.837Z,9.40
2019-05-01T15:56:10.164Z,9.40
2019-05-01T15:58:41.805Z,9.70
2019-05-01T16:01:13.978Z,9.80
2019-05-01T16:03:43.928Z,9.40
2019-05-01T16:06:15.921Z,9.10
2019-05-01T16:08:45.681Z,9.40
2019-05-01T16:11:29.751Z,9.70
2019-05-01T16:14:00.374Z,9.80
2019-05-01T16:16:33.753Z,9.70
2019-05-01T16:19:08.985Z,9.80
2019-05-01T16:21:40.086Z,9.90
2019-05-01T16:24:12.899Z,10.10
2019-05-01T16:26:44.049Z,10.20
2019-05-01T16:29:15.709Z,10.20
2019-05-01T16:31:46.924Z,10.30
2019-05-01T16:34:18.106Z,10.00
2019-05-01T16:36:49.704Z,9.90
2019-05-01T16:39:56.769Z,9.90
2019-05-01T16:42:35.028Z,10.10
2019-05-01T16:45:07.696Z,10.10
2019-05-01T16:47:40.944Z,10.30
2019-05-01T16:50:13.137Z,9.90
2019-05-01T16:52:44.532Z,9.60
2019-05-01T16:55:18.761Z,9.90
2019-05-01T16:57:51.293Z,9.60
2019-05-01T17:00:25.005Z,10.00
2019-05-01T17:03:20.313Z,10.20
2019-05-01T17:05:57.909Z,10.00
2019-05-01T17:08:45.424Z,9.70
2019-05-01T17:11:17.877Z,9.30
2019-05-01T17:13:53.153Z,8.70
2019-05-01T17:16:26.673Z,8.60
2019-05-01T17:18:58.202Z,8.80
2019-05-01T17:21:28.215Z,9.00
2019-05-01T17:23:58.964Z,9.40
2019-05-01T17:26:31.119Z,9.80
2019-05-01T17:29:04.505Z,10.00
2019-05-01T17:31:34.490Z,9.70
2019-05-01T17:34:09.642Z,9.20
2019-05-01T17:36:42.401Z,9.10
2019-05-01T17:39:13.558Z,9.00
2019-05-01T17:41:46.803Z,9.00
2019-05-01T17:44:20.158Z,9.10
2019-05-01T17:46:49.616Z,9.10
2019-05-01T17:49:20.395Z,9.10
2019-05-01T17:51:53.733Z,9.00
2019-05-01T17:54:25.862Z,9.00
2019-05-01T17:56:58.125Z,8.80
2019-05-01T17:59:31.572Z,8.80
2019-05-01T18:02:19.358Z,8.70
2019-05-01T18:04:56.073Z,8.60
2019-05-01T18:07:28.892Z,8.40
2019-05-01T18:10:04.179Z,8.40
2019-05-01T18:12:36.445Z,8.40
2019-05-01T18:15:07.086Z,8.30
2019-05-01T18:17:38.201Z,8.10
2019-05-01T18:20:12.966Z,7.80
2019-05-01T18:23:08.413Z,7.80
2019-05-01T18:26:08.825Z,7.50
2019-05-01T18:29:00.817Z,7.40
2019-05-01T18:31:31.873Z,7.50
2019-05-01T18:34:04.600Z,7.40
2019-05-01T18:36:42.221Z,7.40
2019-05-01T18:39:34.518Z,7.40
2019-05-01T18:42:12.270Z,7.30
2019-05-01T18:44:42.597Z,7.20
2019-05-01T18:47:15.277Z,6.90
2019-05-01T18:49:48.472Z,7.00
2019-05-01T18:52:19.252Z,6.90
2019-05-01T18:54:50.552Z,6.90
2019-05-01T18:57:20.345Z,6.90
2019-05-01T18:59:51.233Z,6.90
2019-05-01T19:02:25.025Z,6.70
2019-05-01T19:04:56.191Z,6.50
2019-05-01T19:07:27.401Z,6.50
2019-05-01T19:09:58.484Z,6.50
2019-05-01T19:12:32.937Z,6.60
2019-05-01T19:15:05.505Z,6.50
2019-05-01T19:17:39.644Z,6.50
2019-05-01T19:20:09.395Z,6.50
2019-05-01T19:22:39.241Z,6.50
2019-05-01T19:25:11.079Z,6.30
2019-05-01T19:27:42.440Z,6.30
2019-05-01T19:30:14.887Z,6.30
2019-05-01T19:32:43.499Z,6.30
2019-05-01T19:35:12.616Z,6.20
2019-05-01T19:37:45.469Z,6.20
2019-05-01T19:40:14.998Z,6.20
2019-05-01T19:42:45.163Z,6.10
2019-05-01T19:45:18.330Z,6.00
2019-05-01T19:47:50.762Z,6.00
2019-05-01T19:50:24.020Z,6.00
2019-05-01T19:52:56.241Z,6.10
2019-05-01T19:55:27.526Z,6.00
2019-05-01T19:58:00.768Z,6.10
2019-05-01T20:00:48.802Z,6.10
2019-05-01T20:03:21.519Z,6.10
2019-05-01T20:05:53.721Z,6.10
2019-05-01T20:08:26.959Z,6.00
2019-05-01T20:11:00.272Z,6.00
2019-05-01T20:13:33.073Z,6.00
2019-05-01T20:16:05.301Z,6.00
2019-05-01T20:18:38.553Z,6.10
2019-05-01T20:21:12.942Z,6.00
2019-05-01T20:23:49.934Z,6.00
2019-05-01T20:26:20.720Z,6.00
2019-05-01T20:28:53.868Z,5.90
2019-05-01T20:31:27.644Z,6.00
2019-05-01T20:33:59.444Z,6.00
2019-05-01T20:36:31.510Z,5.60
2019-05-01T20:39:03.083Z,6.00
2019-05-01T20:41:36.344Z,6.00
2019-05-01T20:44:10.002Z,6.00
2019-05-01T20:46:41.008Z,6.10
2019-05-01T20:49:10.341Z,5.70
2019-05-01T20:51:40.525Z,6.00
2019-05-01T20:54:12.613Z,6.00
2019-05-01T20:56:48.757Z,6.10
2019-05-01T20:59:20.598Z,6.10
2019-05-01T21:01:53.847Z,6.10
2019-05-01T21:04:42.611Z,6.20
2019-05-01T21:07:21.401Z,6.10
2019-05-01T21:09:57.717Z,6.10
2019-05-01T21:12:44.561Z,6.10
2019-05-01T21:15:19.985Z,6.10
2019-05-01T21:17:50.734Z,6.10
2019-05-01T21:20:25.078Z,6.10
2019-05-01T21:22:54.881Z,6.10
2019-05-01T21:25:24.654Z,6.10
2019-05-01T21:27:55.117Z,6.10
2019-05-01T21:30:27.760Z,6.00
2019-05-01T21:33:08.256Z,6.00
2019-05-01T21:35:35.082Z,6.10
2019-05-01T21:38:08.378Z,6.10
2019-05-01T21:40:41.110Z,6.10
2019-05-01T21:43:14.181Z,6.10
2019-05-01T21:45:46.832Z,6.10
2019-05-01T21:48:20.173Z,6.10
2019-05-01T21:50:53.709Z,6.00
2019-05-01T21:53:26.957Z,5.90
2019-05-01T21:55:57.589Z,5.70
2019-05-01T21:58:30.197Z,5.70
2019-05-01T22:01:02.937Z,5.90
2019-05-01T22:03:36.134Z,5.90
2019-05-01T22:06:15.076Z,5.90
2019-05-01T22:08:44.821Z,5.90
2019-05-01T22:11:19.793Z,5.90
2019-05-01T22:13:55.191Z,5.90
2019-05-01T22:16:29.021Z,5.90
2019-05-01T22:19:19.776Z,5.80
2019-05-01T22:22:07.036Z,5.80
2019-05-01T22:24:55.377Z,5.80
2019-05-01T22:27:44.584Z,5.80
2019-05-01T22:30:27.789Z,5.80
2019-05-01T22:33:02.106Z,5.90
2019-05-01T22:35:41.050Z,5.90
2019-05-01T22:38:15.506Z,6.00
2019-05-01T22:41:07.224Z,5.90
2019-05-01T22:43:38.304Z,5.90
2019-05-01T22:46:11.860Z,5.90
2019-05-01T22:48:43.413Z,6.00
2019-05-01T22:51:22.289Z,6.00
2019-05-01T22:54:03.077Z,6.00
2019-05-01T22:56:37.361Z,6.00
2019-05-01T22:59:12.309Z,6.00
2019-05-01T23:01:52.985Z,6.00
2019-05-01T23:04:23.137Z,5.90
2019-05-01T23:06:55.412Z,6.00
2019-05-01T23:09:30.370Z,6.00
2019-05-01T23:12:01.403Z,6.00
2019-05-01T23:14:33.641Z,5.90
2019-05-01T23:17:19.288Z,6.00
2019-05-01T23:19:53.550Z,5.90
2019-05-01T23:22:25.040Z,5.90
2019-05-01T23:25:00.855Z,5.90
2019-05-01T23:27:34.096Z,5.90
2019-05-01T23:30:09.172Z,5.90
2019-05-01T23:32:39.405Z,6.00
2019-05-01T23:35:10.481Z,5.90
2019-05-01T23:37:42.062Z,5.90
2019-05-01T23:40:15.634Z,5.90
2019-05-01T23:42:52.265Z,5.90
2019-05-01T23:45:21.259Z,5.90
2019-05-01T23:47:51.734Z,6.00
2019-05-01T23:50:27.039Z,6.00
2019-05-01T23:52:58.536Z,6.00
2019-05-01T23:55:29.297Z,6.00
2019-05-01T23:57:58.806Z,6.00
